• Join FlightAware (Why Join?)
  • Login
  • US Flag 
01:00PM EDT


 

Airport Tracker/Info


-or-


 

Live Flight TrackerFlight Track Log ✈ SWA1570 ✈ 23-Apr-2013 ✈ KSAN - KSMF

Flight Track Log - Related Links

Times and Time Zones

All times are in EDT time to prevent confusion due to time zone crossing. See the SWA1570 flight status page for this flight to view local times or setup timezone preferences in your user account.

Time Position Orientation Groundspeed Altitude Reporting Facility
EDT Latitude Longitude Course Direction KTS MPH feet Rate Location/Type
12:19PM 32.7494 -117.2286 320° Northwest 170 196 2,000  Level Los Angeles Center
12:20PM 32.7892 -117.3006 303° West 214 246 5,500 3,420 Climbing Los Angeles Center
12:22PM 32.8364 -117.3708 309° West 262 302 9,100 3,000 Climbing Los Angeles Center
12:23PM 32.8906 -117.4425 312° West 282 325 11,700 3,120 Climbing Los Angeles Center
12:24PM 32.9542 -117.5283 311° West 333 383 15,600 3,840 Climbing Los Angeles Center
12:25PM 33.1252 -117.7418 320° Northwest  Level FlightAware Approximate
12:25PM 33.0200 -117.6156 312° West 350 403 19,700  Level Los Angeles Center
12:26PM 33.0864 -117.7064 311° West 360 414 22,900 3,240 Climbing Los Angeles Center
12:27PM 33.1964 -117.7881 328° Northwest 393 452 26,400 2,940 Climbing Los Angeles Center
12:28PM 33.2994 -117.8422 336° Northwest 401 461 29,000 2,280 Climbing Los Angeles Center
12:29PM 33.4064 -117.8981 336° Northwest 417 480 31,200 2,220 Climbing Los Angeles Center
12:30PM 33.5150 -117.9547 336° Northwest 425 489 33,700 2,220 Climbing Los Angeles Center
12:31PM 33.6214 -118.0103 337° Northwest 420 483 35,800 2,100 Climbing Los Angeles Center
12:32PM 33.7489 -118.0786 336° Northwest 422 486 38,100 1,740 Climbing Los Angeles Center
12:33PM 33.8544 -118.1331 337° Northwest 421 484 39,500 900 Climbing Los Angeles Center
12:34PM 33.9603 -118.1914 335° Northwest 423 487 40,000 240 Climbing Los Angeles Center
12:35PM 34.0672 -118.2483 336° Northwest 425 489 40,000  Level Los Angeles Center
12:36PM 34.1731 -118.3061 336° Northwest 420 483 40,000  Level Los Angeles Center
12:37PM 34.3006 -118.3744 336° Northwest 419 482 40,000  Level Los Angeles Center
12:38PM 34.4078 -118.4325 336° Northwest 422 486 40,000  Level Los Angeles Center
12:39PM 34.5119 -118.4897 336° Northwest 417 480 40,000  Level Los Angeles Center
12:40PM 34.6167 -118.5469 336° Northwest 414 476 40,000  Level Los Angeles Center
12:41PM 34.7208 -118.6039 336° Northwest 412 474 40,000  Level Los Angeles Center
12:42PM 34.8256 -118.6611 336° Northwest 412 474 40,000  Level Los Angeles Center
12:43PM 34.9522 -118.7289 336° Northwest 414 476 40,000  Level Los Angeles Center
12:44PM 35.0567 -118.7869 336° Northwest 414 476 40,000  Level Los Angeles Center
12:45PM 35.1633 -118.8447 336° Northwest 418 481 40,000  Level Los Angeles Center
12:46PM 35.2708 -118.9028 336° Northwest 421 484 40,000  Level Los Angeles Center
12:47PM 35.3775 -118.9611 336° Northwest 422 486 40,000  Level Los Angeles Center
12:48PM 35.5042 -119.0314 336° Northwest 419 482 40,000  Level Los Angeles Center
12:49PM 35.6100 -119.0897 336° Northwest 419 482 40,000  Level Los Angeles Center
12:50PM 35.7164 -119.1514 335° Northwest 422 486 40,000  Level Los Angeles Center
12:51PM 35.8231 -119.2108 336° Northwest 423 487 40,000  Level Los Angeles Center
12:53PM 35.9278 -119.2700 335° Northwest 418 481 40,000  Level Los Angeles Center
12:53PM 36.0336 -119.3281 336° Northwest 427 491 40,000  Level Oakland Center
12:55PM 36.1372 -119.3875 335° Northwest 414 476 40,000  Level Oakland Center
12:56PM 36.2419 -119.4458 336° Northwest 413 475 40,000  Level Oakland Center
12:57PM 36.3647 -119.5164 335° Northwest 407 468 40,000  Level Oakland Center
12:58PM 36.4658 -119.5733 336° Northwest 401 461 40,000  Level Oakland Center
12:59PM 36.5669 -119.6319 335° Northwest 400 460 40,000  Level Oakland Center
01:00PM 36.6675 -119.6897 335° Northwest 398 458 40,000  Level Oakland Center
01:01PM 36.7667 -119.7478 335° Northwest 395 455 40,000 -180 Level Oakland Center
01:02PM 36.8678 -119.8067 335° Northwest 402 463 39,700 -1,320 Descending Oakland Center
01:03PM 36.9544 -119.8864 324° Northwest 387 445 37,300 -2,520 Descending Oakland Center
01:04PM 37.0386 -119.9692 322° Northwest 385 443 34,600 -2,700 Descending Oakland Center
01:05PM 37.1367 -120.0661 322° Northwest 395 455 31,900 -2,460 Descending Oakland Center
01:06PM 37.2236 -120.1461 324° Northwest 386 444 29,600 -2,280 Descending Oakland Center
01:07PM 37.3022 -120.2333 319° Northwest 377 434 27,300 -2,100 Descending Oakland Center
01:08PM 37.3828 -120.3014 326° Northwest 357 411 25,300 -2,040 Descending Oakland Center
01:09PM 37.4553 -120.3775 320° Northwest 342 394 23,200 -2,160 Descending Oakland Center
01:09PM 37.5167 -120.4333 324° Northwest 337 388 21,700 -1,740 Descending Northern Cal TRACON
01:10PM 37.5833 -120.5000 322° Northwest 330 380 20,300 -1,200 Descending Northern Cal TRACON
01:11PM 37.6500 -120.5833 315° West 326 375 19,300 -900 Descending Northern Cal TRACON
01:12PM 37.6714 -120.5933 340° North 327 376 19,100 -1,020 Descending Oakland Center
01:13PM 37.7333 -120.6667 317° Northwest 326 375 18,200 -1,140 Descending Northern Cal TRACON
01:13PM 37.8000 -120.7167 329° Northwest 323 372 17,300 -1,020 Descending Northern Cal TRACON
01:14PM 37.8667 -120.7833 322° Northwest 315 362 16,300 -960 Descending Northern Cal TRACON
01:15PM 37.8950 -120.8194 315° West 317 365 15,900 -960 Descending Oakland Center
01:16PM 37.9642 -120.8881 322° Northwest 316 364 14,900 -1,020 Descending Oakland Center
01:17PM 38.0325 -120.9594 321° Northwest 318 366 13,900 -1,020 Descending Oakland Center
01:18PM 38.0981 -121.0319 319° Northwest 314 361 12,900 -1,020 Descending Oakland Center
01:19PM 38.1536 -121.1175 310° West 313 360 11,900 -1,380 Descending Oakland Center
01:19PM 38.1833 -121.1667 308° West 306 352 10,900 -1,620 Descending Northern Cal TRACON
01:20PM 38.2333 -121.2333 314° West 298 343 9,700 -1,500 Descending Northern Cal TRACON
01:21PM 38.2833 -121.3167 307° West 289 333 8,100 -1,620 Descending Northern Cal TRACON
01:22PM 38.3333 -121.3833 314° West 277 319 6,500 -1,560 Descending Northern Cal TRACON
01:23PM 38.3833 -121.4667 307° West 272 313 5,000 -1,320 Descending Northern Cal TRACON
01:24PM 38.4333 -121.5333 314° West 267 307 3,900 -1,080 Descending Northern Cal TRACON
01:25PM 38.4833 -121.5833 322° Northwest 252 290 2,900 -900 Descending Northern Cal TRACON
01:26PM 38.5333 -121.6000 345° North 219 252 2,300 -600 Descending Northern Cal TRACON
01:27PM 38.5833 -121.6000 360° North 151 174 1,700 -600 Descending Northern Cal TRACON
01:28PM 38.6167 -121.6000 360° North 129 148 1,200 -600 Descending Northern Cal TRACON
01:29PM 38.6500 -121.6000 360° North 114 131 600 -600 Descending Northern Cal TRACON
01:30PM 38.6833 -121.6000 360° North 110 127 100 -540 Descending Northern Cal TRACON
01:32PM 38.6833 -121.5833 46° Northeast  Level FlightAware Approximate
01:39PM 38.6954 -121.5908 46° Northeast  Level Estimated